createdAt,value
2018-12-17T00:01:20.362Z,97903.25
2018-12-17T00:03:48.984Z,97911.58
2018-12-17T00:06:17.681Z,97910.17
2018-12-17T00:08:46.426Z,97904.45
2018-12-17T00:11:15.728Z,97913.13
2018-12-17T00:13:44.472Z,97904.37
2018-12-17T00:16:13.164Z,97906.45
2018-12-17T00:18:42.009Z,97905.87
2018-12-17T00:21:10.735Z,97905.64
2018-12-17T00:23:39.353Z,97907.78
2018-12-17T00:26:07.987Z,97916.07
2018-12-17T00:28:36.669Z,97919.80
2018-12-17T00:31:05.425Z,97916.44
2018-12-17T00:33:34.076Z,97913.23
2018-12-17T00:36:02.782Z,97922.91
2018-12-17T00:38:31.390Z,97922.80
2018-12-17T00:41:00.031Z,97927.37
2018-12-17T00:43:29.813Z,97923.38
2018-12-17T00:45:58.665Z,97927.06
2018-12-17T00:48:27.505Z,97925.71
2018-12-17T00:50:56.127Z,97929.52
2018-12-17T00:53:24.830Z,97932.18
2018-12-17T00:55:53.488Z,97942.27
2018-12-17T00:58:22.103Z,97934.53
2018-12-17T01:00:50.743Z,97941.02
2018-12-17T01:03:19.372Z,97936.13
2018-12-17T01:05:48.000Z,97940.80
2018-12-17T01:08:17.146Z,97944.84
2018-12-17T01:10:45.780Z,97949.66
2018-12-17T01:13:14.392Z,97951.30
2018-12-17T01:15:43.076Z,97954.93
2018-12-17T01:18:11.745Z,97958.39
2018-12-17T01:20:40.377Z,97958.46
2018-12-17T01:23:09.022Z,97960.52
2018-12-17T01:25:37.649Z,97963.73
2018-12-17T01:28:06.260Z,97968.73
2018-12-17T01:30:34.901Z,97968.00
2018-12-17T01:33:03.554Z,97972.80
2018-12-17T01:35:32.175Z,97968.99
2018-12-17T01:38:00.771Z,97974.34
2018-12-17T01:40:29.515Z,97975.28
2018-12-17T01:42:58.112Z,97976.75
2018-12-17T01:45:26.798Z,97983.21
2018-12-17T01:47:55.424Z,97982.95
2018-12-17T01:50:24.191Z,97983.13
2018-12-17T01:52:52.791Z,97990.75
2018-12-17T01:55:21.617Z,97982.73
2018-12-17T01:57:50.336Z,97977.41
2018-12-17T02:00:19.169Z,97981.39
2018-12-17T02:02:47.753Z,97978.20
2018-12-17T02:05:16.508Z,97985.20
2018-12-17T02:07:45.109Z,97987.39
2018-12-17T02:10:13.728Z,97989.31
2018-12-17T02:12:42.439Z,97990.02
2018-12-17T02:15:11.324Z,97987.22
2018-12-17T02:17:40.018Z,97981.13
2018-12-17T02:20:08.664Z,97981.67
2018-12-17T02:22:37.275Z,97979.34
2018-12-17T02:25:06.231Z,97982.75
2018-12-17T02:27:34.857Z,97984.06
2018-12-17T02:30:03.809Z,97985.69
2018-12-17T02:32:32.436Z,97988.36
2018-12-17T02:35:01.064Z,97985.41
2018-12-17T02:37:29.673Z,97988.09
2018-12-17T02:39:58.313Z,97990.28
2018-12-17T02:42:26.995Z,97989.27
2018-12-17T02:44:55.709Z,97984.19
2018-12-17T02:47:24.352Z,97984.99
2018-12-17T02:49:53.064Z,97989.41
2018-12-17T02:52:21.659Z,97992.41
2018-12-17T02:54:50.341Z,97991.34
2018-12-17T02:57:19.005Z,97993.16
2018-12-17T02:59:47.708Z,97996.63
2018-12-17T03:02:16.501Z,97990.28
2018-12-17T03:04:45.280Z,97997.22
2018-12-17T03:07:13.952Z,97998.69
2018-12-17T03:09:42.656Z,97994.55
2018-12-17T03:12:11.329Z,98006.20
2018-12-17T03:14:39.942Z,98001.55
2018-12-17T03:17:08.540Z,98001.16
2018-12-17T03:19:37.200Z,98002.74
2018-12-17T03:22:05.810Z,98006.83
2018-12-17T03:24:35.226Z,97998.06
2018-12-17T03:27:03.850Z,98002.67
2018-12-17T03:29:32.563Z,98003.47
2018-12-17T03:32:01.733Z,98003.47
2018-12-17T03:34:30.462Z,98008.81
2018-12-17T03:36:59.076Z,98012.34
2018-12-17T03:39:27.812Z,98022.70
2018-12-17T03:41:56.412Z,98020.24
2018-12-17T03:44:25.291Z,98032.89
2018-12-17T03:46:54.173Z,98027.02
2018-12-17T03:49:22.781Z,98033.69
2018-12-17T03:51:51.395Z,98036.94
2018-12-17T03:54:20.027Z,98038.97
2018-12-17T03:56:48.747Z,98037.38
2018-12-17T03:59:17.398Z,98042.77
2018-12-17T04:01:46.029Z,98034.56
2018-12-17T04:04:14.683Z,98038.28
2018-12-17T04:06:43.403Z,98047.58
2018-12-17T04:09:12.049Z,98048.33
2018-12-17T04:11:40.647Z,98049.44
2018-12-17T04:14:09.387Z,98052.34
2018-12-17T04:16:38.120Z,98055.27
2018-12-17T04:19:06.744Z,98057.47
2018-12-17T04:21:35.375Z,98066.88
2018-12-17T04:24:04.216Z,98066.59
2018-12-17T04:26:32.868Z,98067.41
2018-12-17T04:29:06.743Z,98069.59
2018-12-17T04:31:32.276Z,98072.26
2018-12-17T04:34:00.969Z,98073.83
2018-12-17T04:36:29.594Z,98068.80
2018-12-17T04:38:58.272Z,98065.11
2018-12-17T04:41:26.903Z,98075.73
2018-12-17T04:43:55.724Z,98078.16
2018-12-17T04:46:24.357Z,98075.91
2018-12-17T04:48:53.100Z,98081.42
2018-12-17T04:51:21.863Z,98080.55
2018-12-17T04:53:50.559Z,98085.84
2018-12-17T04:56:19.166Z,98083.90
2018-12-17T04:58:48.048Z,98091.91
2018-12-17T05:01:16.648Z,98085.50
2018-12-17T05:03:45.283Z,98089.30
2018-12-17T05:06:13.871Z,98089.02
2018-12-17T05:08:42.530Z,98101.13
2018-12-17T05:11:11.243Z,98107.92
2018-12-17T05:13:39.959Z,98109.13
2018-12-17T05:16:08.633Z,98113.52
2018-12-17T05:18:37.292Z,98114.28
2018-12-17T05:21:06.067Z,98123.63
2018-12-17T05:23:34.691Z,98127.69
2018-12-17T05:26:03.298Z,98131.70
2018-12-17T05:28:31.970Z,98134.64
2018-12-17T05:31:01.112Z,98131.50
2018-12-17T05:33:29.879Z,98135.25
2018-12-17T05:35:59.179Z,98133.44
2018-12-17T05:38:27.845Z,98143.58
2018-12-17T05:40:57.020Z,98145.98
2018-12-17T05:43:25.835Z,98149.46
2018-12-17T05:45:54.468Z,98161.58
2018-12-17T05:48:23.102Z,98164.55
2018-12-17T05:50:51.832Z,98163.11
2018-12-17T05:53:20.498Z,98167.21
2018-12-17T05:55:49.316Z,98168.26
2018-12-17T05:58:17.965Z,98178.09
2018-12-17T06:00:46.628Z,98182.34
2018-12-17T06:03:15.262Z,98187.61
2018-12-17T06:05:43.883Z,98191.98
2018-12-17T06:08:13.443Z,98202.39
2018-12-17T06:10:42.189Z,98202.39
2018-12-17T06:13:10.974Z,98201.67
2018-12-17T06:15:39.667Z,98205.17
2018-12-17T06:18:08.400Z,98205.75
2018-12-17T06:20:37.015Z,98219.41
2018-12-17T06:23:05.709Z,98216.09
2018-12-17T06:25:34.579Z,98216.44
2018-12-17T06:28:03.378Z,98217.92
2018-12-17T06:30:32.052Z,98228.34
2018-12-17T06:33:00.709Z,98226.88
2018-12-17T06:35:29.472Z,98224.19
2018-12-17T06:37:58.119Z,98225.23
2018-12-17T06:40:26.763Z,98235.57
2018-12-17T06:42:55.387Z,98233.45
2018-12-17T06:45:24.117Z,98237.84
2018-12-17T06:47:52.767Z,98239.73
2018-12-17T06:50:21.386Z,98240.10
2018-12-17T06:52:50.122Z,98244.38
2018-12-17T06:55:18.825Z,98251.73
2018-12-17T06:57:47.799Z,98257.55
2018-12-17T07:00:16.396Z,98261.15
2018-12-17T07:02:45.243Z,98268.31
2018-12-17T07:05:13.860Z,98273.43
2018-12-17T07:07:42.520Z,98290.58
2018-12-17T07:10:11.140Z,98294.03
2018-12-17T07:12:39.895Z,98293.56
2018-12-17T07:15:08.646Z,98297.98
2018-12-17T07:17:37.295Z,98303.91
2018-12-17T07:20:06.433Z,98306.06
2018-12-17T07:22:35.164Z,98305.09
2018-12-17T07:25:04.344Z,98306.20
2018-12-17T07:27:33.082Z,98312.96
2018-12-17T07:30:01.913Z,98310.48
2018-12-17T07:32:30.609Z,98312.32
2018-12-17T07:34:59.247Z,98324.46
2018-12-17T07:37:28.354Z,98323.27
2018-12-17T07:39:57.198Z,98328.38
2018-12-17T07:42:25.843Z,98327.86
2018-12-17T07:44:54.521Z,98332.77
2018-12-17T07:47:23.136Z,98336.66
2018-12-17T07:49:51.795Z,98342.58
2018-12-17T07:52:20.500Z,98348.59
2018-12-17T07:54:49.174Z,98346.53
2018-12-17T07:57:17.879Z,98344.45
2018-12-17T07:59:46.483Z,98349.47
2018-12-17T08:02:15.253Z,98354.61
2018-12-17T08:04:43.855Z,98358.34
2018-12-17T08:07:12.520Z,98355.17
2018-12-17T08:09:41.174Z,98360.15
2018-12-17T08:12:09.780Z,98363.77
2018-12-17T08:14:38.401Z,98363.95
2018-12-17T08:17:07.196Z,98368.31
2018-12-17T08:19:35.827Z,98361.75
2018-12-17T08:22:04.527Z,98369.94
2018-12-17T08:24:33.210Z,98374.77
2018-12-17T08:27:01.960Z,98383.13
2018-12-17T08:29:30.631Z,98389.58
2018-12-17T08:31:59.352Z,98382.75
2018-12-17T08:34:29.223Z,98389.17
2018-12-17T08:36:57.904Z,98384.11
2018-12-17T08:39:26.502Z,98389.66
2018-12-17T08:41:55.203Z,98394.49
2018-12-17T08:44:23.811Z,98391.02
2018-12-17T08:46:52.490Z,98384.04
2018-12-17T08:49:21.078Z,98387.46
2018-12-17T08:51:49.834Z,98392.76
2018-12-17T08:54:18.549Z,98394.75
2018-12-17T08:56:47.323Z,98400.26
2018-12-17T08:59:15.938Z,98400.31
2018-12-17T09:01:44.691Z,98403.94
2018-12-17T09:04:13.411Z,98410.22
2018-12-17T09:06:42.133Z,98411.50
2018-12-17T09:09:10.887Z,98409.59
2018-12-17T09:11:39.615Z,98418.25
2018-12-17T09:14:08.234Z,98412.98
2018-12-17T09:16:36.994Z,98401.60
2018-12-17T09:19:05.629Z,98414.95
2018-12-17T09:21:34.359Z,98417.20
2018-12-17T09:24:02.963Z,98412.79
2018-12-17T09:26:31.942Z,98421.28
2018-12-17T09:29:00.585Z,98422.19
2018-12-17T09:31:29.506Z,98428.59
2018-12-17T09:33:58.129Z,98426.55
2018-12-17T09:36:26.808Z,98415.98
2018-12-17T09:38:55.452Z,98420.77
2018-12-17T09:41:24.304Z,98422.99
2018-12-17T09:43:52.899Z,98425.48
2018-12-17T09:46:21.627Z,98434.78
2018-12-17T09:48:50.313Z,98430.05
2018-12-17T09:51:19.733Z,98431.10
2018-12-17T09:53:48.888Z,98427.96
2018-12-17T09:56:17.601Z,98434.12
2018-12-17T09:58:46.271Z,98442.34
2018-12-17T10:01:15.050Z,98440.50
2018-12-17T10:03:43.739Z,98434.42
2018-12-17T10:06:12.459Z,98442.71
2018-12-17T10:08:41.227Z,98439.12
2018-12-17T10:11:09.870Z,98446.39
2018-12-17T10:13:38.495Z,98441.92
2018-12-17T10:16:07.379Z,98440.63
2018-12-17T10:18:38.400Z,98447.96
2018-12-17T10:21:07.135Z,98446.61
2018-12-17T10:23:36.060Z,98448.20
2018-12-17T10:26:04.855Z,98443.00
2018-12-17T10:28:33.603Z,98446.73
2018-12-17T10:31:02.303Z,98451.02
2018-12-17T10:33:30.953Z,98449.13
2018-12-17T10:35:59.566Z,98453.27
2018-12-17T10:38:28.176Z,98451.53
2018-12-17T10:40:56.852Z,98453.02
2018-12-17T10:43:25.471Z,98455.95
2018-12-17T10:45:54.213Z,98462.11
2018-12-17T10:48:22.823Z,98457.86
2018-12-17T10:50:51.595Z,98454.25
2018-12-17T10:53:20.213Z,98451.44
2018-12-17T10:55:48.947Z,98451.97
2018-12-17T10:58:17.638Z,98452.64
2018-12-17T11:00:51.629Z,98452.31
2018-12-17T11:03:24.416Z,98451.09
2018-12-17T11:05:54.549Z,98439.23
2018-12-17T11:08:23.343Z,98444.30
2018-12-17T11:10:52.043Z,98443.95
2018-12-17T11:13:20.711Z,98434.19
2018-12-17T11:15:49.379Z,98433.79
2018-12-17T11:18:18.022Z,98438.52
2018-12-17T11:20:46.912Z,98436.80
2018-12-17T11:23:15.538Z,98437.64
2018-12-17T11:25:44.464Z,98424.07
2018-12-17T11:28:13.322Z,98419.27
2018-12-17T11:30:46.533Z,98419.45
2018-12-17T11:33:19.155Z,98410.46
2018-12-17T11:35:47.792Z,98403.81
2018-12-17T11:38:16.668Z,98403.86
2018-12-17T11:40:45.412Z,98409.44
2018-12-17T11:43:14.055Z,98413.59
2018-12-17T11:45:42.930Z,98414.62
2018-12-17T11:48:11.599Z,98414.70
2018-12-17T11:50:40.366Z,98417.08
2018-12-17T11:53:09.067Z,98411.40
2018-12-17T11:55:37.824Z,98415.28
2018-12-17T11:58:12.246Z,98410.53
2018-12-17T12:00:44.601Z,98412.13
2018-12-17T12:03:13.214Z,98404.48
2018-12-17T12:05:41.893Z,98404.77
2018-12-17T12:08:10.640Z,98405.90
2018-12-17T12:10:39.285Z,98411.29
2018-12-17T12:13:08.028Z,98413.16
2018-12-17T12:15:36.842Z,98408.91
2018-12-17T12:18:05.675Z,98419.65
2018-12-17T12:20:35.186Z,98416.45
2018-12-17T12:23:03.819Z,98420.97
2018-12-17T12:25:32.513Z,98419.61
2018-12-17T12:28:01.327Z,98423.33
2018-12-17T12:30:30.197Z,98425.22
2018-12-17T12:32:59.860Z,98436.22
2018-12-17T12:35:28.570Z,98441.55
2018-12-17T12:37:58.639Z,98452.04
2018-12-17T12:40:27.587Z,98452.17
2018-12-17T12:42:56.336Z,98453.12
2018-12-17T12:45:25.057Z,98448.02
2018-12-17T12:47:53.910Z,98452.16
2018-12-17T12:50:22.786Z,98460.47
2018-12-17T12:52:51.515Z,98457.71
2018-12-17T12:55:20.271Z,98458.02
2018-12-17T12:57:48.868Z,98458.59
2018-12-17T13:00:17.553Z,98451.09
2018-12-17T13:02:46.484Z,98453.73
2018-12-17T13:05:15.125Z,98453.56
2018-12-17T13:07:44.052Z,98462.62
2018-12-17T13:10:13.333Z,98463.87
2018-12-17T13:12:42.184Z,98470.34
2018-12-17T13:15:11.162Z,98468.78
2018-12-17T13:17:39.779Z,98460.75
2018-12-17T13:20:10.016Z,98461.96
2018-12-17T13:22:39.039Z,98471.73
2018-12-17T13:25:14.808Z,98464.98
2018-12-17T13:27:43.523Z,98474.28
2018-12-17T13:30:12.273Z,98468.03
2018-12-17T13:32:40.904Z,98468.39
2018-12-17T13:35:10.093Z,98469.28
2018-12-17T13:37:38.702Z,98477.05
2018-12-17T13:40:09.659Z,98481.80
2018-12-17T13:42:38.253Z,98481.84
2018-12-17T13:45:07.396Z,98497.50
2018-12-17T13:47:36.029Z,98492.36
2018-12-17T13:50:10.145Z,98497.39
2018-12-17T13:52:44.022Z,98505.76
2018-12-17T13:55:12.787Z,98508.19
2018-12-17T13:57:41.389Z,98504.89
2018-12-17T14:00:11.851Z,98503.02
2018-12-17T14:02:40.612Z,98521.38
2018-12-17T14:05:09.496Z,98531.64
2018-12-17T14:07:38.136Z,98527.14
2018-12-17T14:10:14.605Z,98527.25
2018-12-17T14:12:43.472Z,98537.33
2018-12-17T14:15:12.227Z,98534.44
2018-12-17T14:17:44.943Z,98536.77
2018-12-17T14:20:19.187Z,98543.88
2018-12-17T14:22:47.808Z,98535.08
2018-12-17T14:25:16.447Z,98538.84
2018-12-17T14:27:45.105Z,98547.48
2018-12-17T14:30:14.093Z,98555.13
2018-12-17T14:32:42.815Z,98559.48
2018-12-17T14:35:11.548Z,98552.50
2018-12-17T14:37:45.596Z,98559.22
2018-12-17T14:40:14.429Z,98560.01
2018-12-17T14:42:43.136Z,98561.13
2018-12-17T14:45:12.124Z,98560.94
2018-12-17T14:47:40.787Z,98565.47
2018-12-17T14:50:09.399Z,98569.44
2018-12-17T14:52:38.073Z,98579.03
2018-12-17T14:55:08.184Z,98580.33
2018-12-17T14:57:36.894Z,98587.36
2018-12-17T15:00:07.741Z,98592.10
2018-12-17T15:02:36.353Z,98593.66
2018-12-17T15:05:05.591Z,98595.93
2018-12-17T15:07:34.352Z,98603.73
2018-12-17T15:10:03.152Z,98606.59
2018-12-17T15:12:31.923Z,98609.04
2018-12-17T15:15:00.670Z,98619.02
2018-12-17T15:17:29.281Z,98611.35
2018-12-17T15:19:57.913Z,98616.23
2018-12-17T15:22:26.627Z,98625.98
2018-12-17T15:24:55.286Z,98629.02
2018-12-17T15:27:24.356Z,98632.88
2018-12-17T15:29:53.011Z,98633.61
2018-12-17T15:32:21.668Z,98633.22
2018-12-17T15:34:50.351Z,98636.50
2018-12-17T15:37:18.944Z,98641.85
2018-12-17T15:39:47.580Z,98652.09
2018-12-17T15:42:16.651Z,98649.60
2018-12-17T15:44:45.347Z,98655.67
2018-12-17T15:47:14.882Z,98664.28
2018-12-17T15:49:43.989Z,98661.56
2018-12-17T15:52:12.640Z,98673.38
2018-12-17T15:54:41.403Z,98677.70
2018-12-17T15:57:10.151Z,98682.37
2018-12-17T15:59:39.559Z,98685.13
2018-12-17T16:02:08.391Z,98686.19
2018-12-17T16:04:37.100Z,98698.37
2018-12-17T16:07:05.720Z,98699.97
2018-12-17T16:09:34.398Z,98703.61
2018-12-17T16:12:03.008Z,98707.04
2018-12-17T16:14:31.685Z,98716.45
2018-12-17T16:17:00.293Z,98714.91
2018-12-17T16:19:29.176Z,98722.66
2018-12-17T16:21:57.804Z,98723.99
2018-12-17T16:24:26.439Z,98730.43
2018-12-17T16:26:55.091Z,98733.20
2018-12-17T16:29:23.793Z,98736.71
2018-12-17T16:31:57.269Z,98742.52
2018-12-17T16:34:23.126Z,98746.92
2018-12-17T16:36:52.071Z,98746.32
2018-12-17T16:39:20.714Z,98751.80
2018-12-17T16:41:49.444Z,98755.01
2018-12-17T16:44:18.088Z,98753.85
2018-12-17T16:46:46.953Z,98761.45
2018-12-17T16:49:15.677Z,98759.34
2018-12-17T16:51:44.299Z,98765.94
2018-12-17T16:54:13.063Z,98776.06
2018-12-17T16:56:41.990Z,98765.31
2018-12-17T16:59:10.625Z,98771.75
2018-12-17T17:01:39.253Z,98773.35
2018-12-17T17:04:07.887Z,98772.86
2018-12-17T17:06:36.524Z,98777.61
2018-12-17T17:09:07.531Z,98780.29
2018-12-17T17:11:36.390Z,98787.38
2018-12-17T17:14:05.355Z,98791.40
2018-12-17T17:16:34.073Z,98790.02
2018-12-17T17:19:02.687Z,98795.66
2018-12-17T17:21:31.303Z,98794.31
2018-12-17T17:24:00.136Z,98794.34
2018-12-17T17:26:28.839Z,98803.91
2018-12-17T17:28:57.479Z,98815.88
2018-12-17T17:31:26.156Z,98819.18
2018-12-17T17:33:55.198Z,98820.72
2018-12-17T17:36:23.824Z,98819.76
2018-12-17T17:38:52.543Z,98828.08
2018-12-17T17:41:21.199Z,98826.30
2018-12-17T17:43:49.941Z,98838.52
2018-12-17T17:46:18.623Z,98834.05
2018-12-17T17:48:47.447Z,98831.20
2018-12-17T17:51:16.435Z,98835.27
2018-12-17T17:53:45.070Z,98835.36
2018-12-17T17:56:13.693Z,98834.27
2018-12-17T17:58:42.623Z,98834.44
2018-12-17T18:01:11.225Z,98837.64
2018-12-17T18:03:39.884Z,98839.30
2018-12-17T18:06:08.572Z,98844.46
2018-12-17T18:08:37.203Z,98853.13
2018-12-17T18:11:05.861Z,98849.25
2018-12-17T18:13:34.670Z,98858.94
2018-12-17T18:16:09.469Z,98863.73
2018-12-17T18:18:38.168Z,98867.04
2018-12-17T18:21:06.883Z,98868.53
2018-12-17T18:23:35.503Z,98873.52
2018-12-17T18:26:04.143Z,98878.42
2018-12-17T18:28:32.803Z,98877.19
2018-12-17T18:31:01.413Z,98878.84
2018-12-17T18:33:30.141Z,98880.46
2018-12-17T18:35:58.876Z,98875.46
2018-12-17T18:38:27.503Z,98879.80
2018-12-17T18:40:56.148Z,98890.01
2018-12-17T18:43:24.806Z,98900.42
2018-12-17T18:45:53.527Z,98905.98
2018-12-17T18:48:22.183Z,98911.77
2018-12-17T18:50:50.883Z,98912.64
2018-12-17T18:53:19.559Z,98902.51
2018-12-17T18:55:48.220Z,98907.92
2018-12-17T18:58:16.890Z,98900.22
2018-12-17T19:00:45.584Z,98901.38
2018-12-17T19:03:14.237Z,98903.25
2018-12-17T19:05:42.891Z,98910.99
2018-12-17T19:08:11.545Z,98902.72
2018-12-17T19:10:46.061Z,98915.80
2018-12-17T19:13:15.055Z,98929.73
2018-12-17T19:15:43.666Z,98928.81
2018-12-17T19:18:12.397Z,98926.97
2018-12-17T19:20:40.992Z,98925.63
2018-12-17T19:23:09.804Z,98930.30
2018-12-17T19:25:38.440Z,98913.82
2018-12-17T19:28:07.059Z,98919.28
2018-12-17T19:30:35.681Z,98926.95
2018-12-17T19:33:04.337Z,98920.27
2018-12-17T19:35:33.086Z,98922.05
2018-12-17T19:38:01.807Z,98919.22
2018-12-17T19:40:30.463Z,98922.21
2018-12-17T19:42:59.096Z,98926.34
2018-12-17T19:45:27.703Z,98930.64
2018-12-17T19:47:56.347Z,98934.03
2018-12-17T19:50:25.029Z,98929.08
2018-12-17T19:52:53.700Z,98928.70
2018-12-17T19:55:22.389Z,98936.83
2018-12-17T19:57:51.044Z,98940.19
2018-12-17T20:00:19.647Z,98939.09
2018-12-17T20:02:48.460Z,98935.70
2018-12-17T20:05:17.076Z,98930.07
2018-12-17T20:07:45.769Z,98933.23
2018-12-17T20:10:19.671Z,98938.48
2018-12-17T20:12:48.428Z,98946.95
2018-12-17T20:15:17.051Z,98948.94
2018-12-17T20:17:45.663Z,98949.51
2018-12-17T20:20:14.277Z,98957.93
2018-12-17T20:22:42.992Z,98961.88
2018-12-17T20:25:11.733Z,98956.53
2018-12-17T20:27:40.492Z,98958.08
2018-12-17T20:30:11.124Z,98957.91
2018-12-17T20:32:40.523Z,98962.79
2018-12-17T20:35:10.163Z,98963.50
2018-12-17T20:37:38.771Z,98963.70
2018-12-17T20:40:09.395Z,98966.63
2018-12-17T20:42:38.041Z,98968.20
2018-12-17T20:45:08.787Z,98978.06
2018-12-17T20:47:37.983Z,98975.91
2018-12-17T20:50:07.659Z,98979.04
2018-12-17T20:52:36.307Z,98986.73
2018-12-17T20:55:05.763Z,98982.19
2018-12-17T20:57:34.480Z,98987.75
2018-12-17T21:00:03.408Z,98989.95
2018-12-17T21:02:32.028Z,98994.08
2018-12-17T21:05:00.690Z,98996.92
2018-12-17T21:07:29.488Z,98987.36
2018-12-17T21:09:59.864Z,98983.59
2018-12-17T21:12:28.580Z,98986.83
2018-12-17T21:14:57.310Z,98992.51
2018-12-17T21:17:26.289Z,98992.91
2018-12-17T21:19:54.912Z,98992.95
2018-12-17T21:22:23.546Z,98995.63
2018-12-17T21:24:52.387Z,98996.27
2018-12-17T21:27:21.184Z,99003.24
2018-12-17T21:29:49.803Z,98999.19
2018-12-17T21:32:18.472Z,99003.94
2018-12-17T21:34:47.502Z,98996.26
2018-12-17T21:37:16.504Z,98993.77
2018-12-17T21:39:45.220Z,98991.33
2018-12-17T21:42:13.913Z,98994.86
2018-12-17T21:44:42.608Z,98993.23
2018-12-17T21:47:11.256Z,98987.89
2018-12-17T21:49:39.956Z,98984.05
2018-12-17T21:52:08.896Z,98989.64
2018-12-17T21:54:37.559Z,98992.86
2018-12-17T21:57:07.017Z,98995.77
2018-12-17T21:59:35.655Z,98999.72
2018-12-17T22:02:04.479Z,99001.43
2018-12-17T22:04:33.095Z,99001.43
2018-12-17T22:07:01.711Z,99003.47
2018-12-17T22:09:30.350Z,99002.75
2018-12-17T22:11:58.996Z,99004.61
2018-12-17T22:14:27.778Z,99004.89
2018-12-17T22:16:56.411Z,99008.38
2018-12-17T22:19:25.047Z,99005.81
2018-12-17T22:21:53.653Z,99007.69
2018-12-17T22:24:22.383Z,99005.38
2018-12-17T22:26:51.046Z,99010.24
2018-12-17T22:29:19.891Z,99003.58
2018-12-17T22:31:48.644Z,99007.76
2018-12-17T22:34:17.245Z,99005.69
2018-12-17T22:36:45.956Z,99012.14
2018-12-17T22:39:14.577Z,99016.28
2018-12-17T22:41:43.224Z,99013.23
2018-12-17T22:44:11.920Z,99021.85
2018-12-17T22:46:40.649Z,99025.91
2018-12-17T22:49:09.242Z,99029.48
2018-12-17T22:51:38.041Z,99025.52
2018-12-17T22:54:06.635Z,99031.25
2018-12-17T22:56:35.378Z,99026.29
2018-12-17T22:59:04.003Z,99030.39
2018-12-17T23:01:32.709Z,99031.05
2018-12-17T23:04:01.464Z,99027.45
2018-12-17T23:06:30.186Z,99032.53
2018-12-17T23:09:07.286Z,99030.48
2018-12-17T23:18:49.711Z,99028.47
2018-12-17T23:21:18.644Z,99037.63
2018-12-17T23:23:47.439Z,99035.36
2018-12-17T23:26:16.201Z,99037.92
2018-12-17T23:28:44.894Z,99036.75
2018-12-17T23:31:13.665Z,99038.61
2018-12-17T23:33:42.299Z,99038.32
2018-12-17T23:36:10.992Z,99047.44
2018-12-17T23:38:39.725Z,99036.70
2018-12-17T23:41:08.420Z,99036.98
2018-12-17T23:43:37.093Z,99034.36
2018-12-17T23:46:05.766Z,99034.07
2018-12-17T23:48:34.387Z,99030.13
2018-12-17T23:51:03.089Z,99028.06
2018-12-17T23:53:31.732Z,99035.27
2018-12-17T23:56:00.435Z,99033.01
2018-12-17T23:58:29.222Z,99025.27
